Terminal Aerodrome Forecast
Issued by NWS

Home | Current Version | Previous Version | Text Only | Print | Product List | Glossary On
Versions: 1 2 3 4 5 6 7 8 9 10 11 12 13 14 15 16 17 18
000
FTUS46 KSGX 061125
TAFCRQ
TAF
KCRQ 061125Z 0612/0712 VRB04KT P6SM -SHRA SCT015 BKN050
     FM061800 20010KT P6SM -SHRA FEW015 SCT025 BKN050
     FM062000 23009G18KT P6SM -SHRA SCT015 BKN040
     FM070200 24006KT P6SM VCSH SCT015 BKN025=

USA.gov is the U.S. government's official web portal to all federal, state and local government web resources and services.